Mindoro, WI

10:07 AM CDT on September 01, 2014 (GMT -0500)
Black Oak | Change Station
CLOSE
Current Station
Personal Weather Station
Location: Mindoro, WI
Elevation: 781 ft
Nearby Weather Stations

Elev 781 ft 44.06 °N, 91.15 °W | Updated 9 minutes ago

Overcast
Overcast
67.8 °F
Feels Like 67.8 °F
N
3.8
Wind Variable Wind from WSW
Gusts 3.8 mph

Today
High -- | Low -- °F
--% Chance of Precip.
Yesterday
High -- | Low -- °F
Precip. -- in
6:27 AM 7:40 PM
Waxing Crescent, 41% visible
Pressure 29.67 in
Visibility 9.0 miles
Clouds Mostly Cloudy 1500 ft
Overcast 2000 ft
Dew Point 68 °F
Humidity 99%
Rainfall 0.44 in
Snow Depth Not available.
UV 1 out of 12
Pollen 3.70 out of 12
PM2.5 Good
Flu Activity Not available.
SPECI KLSE 011405Z 19007KT 9SM -RA BKN015 OVC020 19/18 A2967 RMK AO2 LTG DSNT E-S RAB1355 P0000 T01940178

More Conditions Fewer Conditions

Pressure 29.67 in
Visibility 9.0 miles
Clouds Mostly Cloudy 1500 ft
Overcast 2000 ft
Dew Point 68 °F
Humidity 99%
Rainfall 0.44 in
Snow Depth Not available.
UV 1 out of 12
Pollen 3.70 out of 12
PM2.5 Good
Flu Activity Not available.
SPECI KLSE 011405Z 19007KT 9SM -RA BKN015 OVC020 19/18 A2967 RMK AO2 LTG DSNT E-S RAB1355 P0000 T01940178

More Conditions Fewer Conditions

10-Day Weather Forecast

Almanac

Astronomy

Sep. 01, 2014 Rise Set
Actual Time 6:27 AM CDT 7:40 PM CDT
Civil Twilight 5:57 AM CDT 8:09 PM CDT
Nautical Twilight 5:21 AM CDT 8:45 PM CDT
Astronomical Twilight 4:44 AM CDT 9:22 PM CDT
Moon 1:27 PM CDT 11:27 PM CDT
Length of Visible Light 14h 12m
Length of Day
13h 12m
Tomorrow will be 2m 54s shorter.
Waxing Crescent, 41% of the Moon is Illuminated
Today
Waxing Crescent
Sep 2
First Quarter
Sep 8
Full
Sep 15
Last Quarter
Sep 24
New

Today's Extremes

State Highs State Lows

Community

WunderPhotos

Upload Photos

1,749,256 photos uploaded!

Nearby

Air Quality

  Air Quality AQ Index Pollutant
Yesterday Good
OZONE
Yesterday Good
PM2.5
Current Good
PM2.5
Monday Good
PM2.5
Monday Good
OZONE
Tuesday Good
PM2.5
Tuesday Good
OZONE

Snow Depth

Station Depth Elevation
No new snow has been reported.

Earthquake Activity

City Distance Mag. Time & Date
No recent earthquake activity has been reported nearby.
Minimum magnitude displayed is 2.5.

Coastal Water Temperatures

Place Temperature
No Stations Reporting

Nearby Weather Stations